Time;durP1;ratioP1;P1;durP2;ratioP2;P2;SDS_P1;SDS_P2;PMS_P1;PMS_P2;Temp;Humidity;BMP_temperature;BMP_pressure;BME280_temperature;BME280_humidity;BME280_pressure;Samples;Min_cycle;Max_cycle;Signal;HPM_P1;HPM_P2
2021/04/07 00:01:43;;;;;;;7.43;1.40;;;2.50;72.20;;;;;;4933599;29;20035;-90
2021/04/07 00:04:09;;;;;;;4.70;1.42;;;2.40;72.50;;;;;;4932065;29;20031;-90
2021/04/07 00:06:35;;;;;;;2.45;1.02;;;2.40;72.70;;;;;;4932843;29;20031;-91
2021/04/07 00:09:02;;;;;;;3.97;1.20;;;2.30;72.90;;;;;;4931130;29;20054;-90
2021/04/07 00:11:28;;;;;;;3.25;1.10;;;2.30;72.90;;;;;;4932936;29;20229;-90
2021/04/07 00:13:54;;;;;;;4.55;1.30;;;2.30;72.90;;;;;;4931328;29;20031;-89
2021/04/07 00:16:20;;;;;;;4.30;1.00;;;2.30;73.00;;;;;;4930072;29;20078;-87
2021/04/07 00:18:46;;;;;;;4.22;1.17;;;2.30;73.40;;;;;;4930682;29;20452;-89
2021/04/07 00:21:11;;;;;;;2.83;1.02;;;2.30;73.10;;;;;;4931755;29;20046;-89
2021/04/07 00:23:37;;;;;;;1.92;0.80;;;2.40;73.10;;;;;;4931719;29;20105;-89
2021/04/07 00:26:02;;;;;;;4.03;1.05;;;2.30;73.00;;;;;;4933271;28;20479;-89
2021/04/07 00:28:28;;;;;;;2.92;0.90;;;2.30;73.10;;;;;;4934495;29;20491;-89
2021/04/07 00:30:54;;;;;;;3.33;1.08;;;2.30;73.20;;;;;;4934477;29;20062;-89
2021/04/07 00:33:20;;;;;;;2.00;0.90;;;2.30;73.10;;;;;;4932486;29;20050;-90
2021/04/07 00:35:45;;;;;;;3.92;1.08;;;2.30;73.20;;;;;;4935538;29;20052;-89
2021/04/07 00:38:14;;;;;;;1.58;0.85;;;2.30;73.30;;;;;;4933472;29;20106;-89
2021/04/07 00:40:40;;;;;;;2.80;1.00;;;2.30;73.30;;;;;;4931525;29;20036;-90
2021/04/07 00:43:06;;;;;;;7.03;1.35;;;2.20;73.30;;;;;;4935556;29;20028;-89
2021/04/07 00:45:32;;;;;;;3.22;0.90;;;2.20;73.40;;;;;;4931963;29;20050;-89
2021/04/07 00:47:58;;;;;;;4.38;1.10;;;2.20;73.50;;;;;;4931390;29;20503;-89
2021/04/07 00:50:26;;;;;;;2.70;1.20;;;2.20;74.10;;;;;;4932697;29;20074;-89
2021/04/07 00:52:53;;;;;;;4.85;1.23;;;2.20;73.60;;;;;;4932439;29;20494;-88
2021/04/07 00:55:21;;;;;;;2.70;0.88;;;2.20;73.60;;;;;;4931810;29;20040;-89
2021/04/07 00:57:48;;;;;;;2.70;0.90;;;2.20;73.60;;;;;;4930601;29;20111;-88
2021/04/07 01:00:14;;;;;;;3.10;0.90;;;2.20;73.60;;;;;;4931959;29;20051;-88
2021/04/07 01:02:41;;;;;;;3.15;1.35;;;2.20;73.60;;;;;;4930239;29;20032;-88
2021/04/07 01:05:08;;;;;;;3.67;1.10;;;2.20;73.60;;;;;;4928994;29;20483;-88
2021/04/07 01:07:35;;;;;;;3.38;0.90;;;2.20;74.30;;;;;;4930429;29;20079;-88
2021/04/07 01:10:01;;;;;;;2.75;1.05;;;2.20;73.70;;;;;;4930254;29;20035;-88
2021/04/07 01:12:27;;;;;;;3.22;0.88;;;2.30;74.30;;;;;;4931746;29;20050;-89
2021/04/07 01:14:53;;;;;;;2.90;1.02;;;2.30;73.60;;;;;;4931633;29;20487;-89
2021/04/07 01:17:19;;;;;;;4.10;1.30;;;2.40;73.80;;;;;;4933374;29;20399;-90
2021/04/07 01:19:45;;;;;;;2.78;0.82;;;2.30;73.80;;;;;;4932467;29;20075;-90
2021/04/07 01:22:14;;;;;;;2.45;0.80;;;2.40;73.90;;;;;;4931683;29;20483;-90
2021/04/07 01:24:40;;;;;;;3.60;1.05;;;2.40;74.00;;;;;;4930056;29;20483;-92
2021/04/07 01:27:05;;;;;;;2.65;1.00;;;2.40;73.90;;;;;;4931302;29;20039;-91
2021/04/07 01:29:31;;;;;;;3.90;0.98;;;2.40;73.90;;;;;;4929982;29;20603;-89
2021/04/07 01:31:57;;;;;;;4.38;1.00;;;2.40;74.00;;;;;;4934441;29;20531;-89
2021/04/07 01:34:29;;;;;;;6.03;1.20;;;2.30;74.40;;;;;;4937098;29;20027;-90
2021/04/07 01:36:57;;;;;;;4.15;1.40;;;2.30;74.60;;;;;;4935577;29;20039;-89
2021/04/07 01:39:24;;;;;;;3.70;1.00;;;2.30;74.90;;;;;;4937651;29;20379;-89
2021/04/07 01:41:50;;;;;;;3.15;0.90;;;2.40;75.10;;;;;;4935854;29;20035;-90
2021/04/07 01:44:18;;;;;;;6.07;1.52;;;2.30;75.10;;;;;;4935745;29;20494;-89
2021/04/07 01:46:44;;;;;;;5.03;1.30;;;2.40;75.30;;;;;;4935176;29;20042;-89
2021/04/07 01:49:11;;;;;;;5.40;1.08;;;2.40;75.50;;;;;;4935674;29;20356;-89
2021/04/07 01:51:37;;;;;;;1.65;0.90;;;2.40;75.50;;;;;;4935669;29;20032;-89
2021/04/07 01:54:08;;;;;;;2.95;1.17;;;2.40;75.50;;;;;;4936060;29;20051;-89
2021/04/07 01:56:48;;;;;;;2.90;1.20;;;2.40;75.60;;;;;;4933963;29;20039;-89
2021/04/07 01:59:15;;;;;;;2.22;1.00;;;2.40;75.70;;;;;;4934825;29;20114;-89
2021/04/07 02:01:42;;;;;;;3.05;1.00;;;2.50;75.70;;;;;;4934717;29;20059;-89
2021/04/07 02:04:07;;;;;;;2.50;1.10;;;2.50;75.80;;;;;;4935286;29;20068;-89
2021/04/07 02:06:33;;;;;;;3.20;1.17;;;2.40;75.80;;;;;;4934158;29;20091;-89
2021/04/07 02:08:59;;;;;;;4.93;1.40;;;2.50;75.90;;;;;;4935579;29;20090;-88
2021/04/07 02:11:24;;;;;;;2.78;1.15;;;2.40;76.00;;;;;;4934921;29;20031;-88
2021/04/07 02:13:50;;;;;;;2.83;1.40;;;2.40;76.20;;;;;;4935734;29;20436;-89
2021/04/07 02:16:16;;;;;;;2.80;1.42;;;2.40;76.40;;;;;;4933427;29;20040;-88
2021/04/07 02:18:43;;;;;;;2.15;1.27;;;2.40;76.60;;;;;;4932632;29;20122;-89
2021/04/07 02:21:12;;;;;;;2.55;1.38;;;2.40;76.70;;;;;;4932482;29;20079;-89
2021/04/07 02:23:39;;;;;;;3.38;1.30;;;2.50;76.70;;;;;;4935993;29;20039;-89
2021/04/07 02:26:05;;;;;;;3.63;1.60;;;2.40;76.50;;;;;;4933524;29;20372;-88
2021/04/07 02:28:32;;;;;;;2.72;1.35;;;2.50;76.60;;;;;;4931719;29;20028;-88
2021/04/07 02:30:57;;;;;;;3.67;1.30;;;2.50;76.70;;;;;;4931547;29;20501;-88
2021/04/07 02:33:23;;;;;;;3.78;1.30;;;2.60;76.80;;;;;;4935705;29;20060;-88
2021/04/07 02:35:49;;;;;;;2.97;1.20;;;2.50;76.70;;;;;;4930431;29;20406;-88
2021/04/07 02:38:15;;;;;;;2.85;1.48;;;2.60;76.70;;;;;;4932893;29;20024;-90
2021/04/07 02:40:40;;;;;;;1.98;1.20;;;2.60;76.60;;;;;;4930996;29;20043;-87
2021/04/07 02:43:06;;;;;;;1.85;1.20;;;2.60;76.70;;;;;;4932750;29;20030;-88
2021/04/07 02:45:31;;;;;;;3.47;1.40;;;2.60;76.80;;;;;;4931424;29;20167;-88
2021/04/07 02:47:57;;;;;;;3.75;1.20;;;2.60;77.10;;;;;;4932801;29;20491;-88
2021/04/07 02:50:23;;;;;;;3.05;1.30;;;2.60;77.30;;;;;;4932228;29;20364;-88
2021/04/07 02:52:48;;;;;;;2.83;1.20;;;2.60;77.40;;;;;;4933008;29;20032;-88
2021/04/07 02:55:14;;;;;;;2.00;1.20;;;2.60;77.80;;;;;;4934611;29;20127;-88
2021/04/07 02:57:40;;;;;;;4.40;1.67;;;2.60;78.00;;;;;;4932422;29;20494;-87
2021/04/07 03:00:07;;;;;;;3.47;1.23;;;2.60;78.20;;;;;;4933980;29;20034;-88
2021/04/07 03:02:33;;;;;;;4.63;1.40;;;2.60;78.20;;;;;;4935737;29;20024;-88
2021/04/07 03:04:59;;;;;;;4.18;1.58;;;2.60;78.00;;;;;;4932389;29;20157;-89
2021/04/07 03:07:25;;;;;;;3.60;1.23;;;2.60;78.10;;;;;;4933290;29;20031;-90
2021/04/07 03:09:51;;;;;;;2.30;1.08;;;2.60;78.20;;;;;;4938841;28;20084;-90
2021/04/07 03:12:17;;;;;;;3.65;1.63;;;2.60;78.20;;;;;;4934653;29;20024;-88
2021/04/07 03:14:42;;;;;;;3.63;1.70;;;2.70;78.20;;;;;;4935338;28;20031;-89
2021/04/07 03:17:09;;;;;;;2.83;1.40;;;2.60;78.40;;;;;;4938105;28;20094;-88
2021/04/07 03:19:35;;;;;;;3.45;1.60;;;2.60;78.50;;;;;;4933072;29;20039;-88
2021/04/07 03:22:01;;;;;;;1.52;1.00;;;2.70;78.40;;;;;;4932251;29;20062;-85
2021/04/07 03:24:26;;;;;;;2.33;1.00;;;2.70;78.30;;;;;;4934663;29;20058;-89
2021/04/07 03:26:52;;;;;;;3.40;1.67;;;2.70;78.30;;;;;;4931778;29;20118;-88
2021/04/07 03:29:17;;;;;;;2.38;1.40;;;2.70;78.60;;;;;;4931275;29;20086;-89
2021/04/07 03:31:43;;;;;;;1.83;1.20;;;2.70;78.60;;;;;;4931517;29;20071;-89
2021/04/07 03:34:08;;;;;;;3.70;1.70;;;2.70;78.80;;;;;;4931172;29;20035;-89
2021/04/07 03:36:34;;;;;;;3.20;1.13;;;2.70;78.90;;;;;;4931593;29;20513;-88
2021/04/07 03:38:59;;;;;;;2.47;1.38;;;2.70;78.90;;;;;;4930533;29;20027;-88
2021/04/07 03:41:25;;;;;;;2.28;1.20;;;2.70;78.80;;;;;;4932276;29;20067;-89
2021/04/07 03:43:51;;;;;;;2.92;1.50;;;2.70;78.80;;;;;;4929356;29;20059;-88
2021/04/07 03:46:17;;;;;;;2.15;1.27;;;2.70;79.00;;;;;;4935245;29;20034;-88
2021/04/07 03:48:42;;;;;;;2.47;1.20;;;2.70;79.10;;;;;;4930601;29;20035;-88
2021/04/07 03:51:08;;;;;;;3.03;1.23;;;2.70;79.30;;;;;;4929736;29;20487;-88
2021/04/07 03:53:34;;;;;;;2.28;1.13;;;2.70;79.30;;;;;;4931885;29;20379;-90
2021/04/07 03:56:00;;;;;;;3.33;1.17;;;2.70;79.30;;;;;;4929861;29;20046;-91
2021/04/07 03:58:26;;;;;;;3.88;1.65;;;2.70;79.30;;;;;;4934217;29;20050;-89
2021/04/07 04:00:52;;;;;;;2.42;1.05;;;2.70;79.30;;;;;;4932590;29;20027;-89
2021/04/07 04:03:18;;;;;;;3.05;1.08;;;2.70;79.40;;;;;;4933401;29;20127;-90
2021/04/07 04:05:44;;;;;;;2.97;1.30;;;2.70;79.30;;;;;;4932621;29;20035;-90
2021/04/07 04:08:10;;;;;;;1.95;1.00;;;2.70;80.50;;;;;;4932177;29;20039;-89
2021/04/07 04:10:36;;;;;;;1.05;0.80;;;2.60;79.90;;;;;;4935608;29;20023;-91
2021/04/07 04:13:03;;;;;;;2.25;1.02;;;2.70;80.00;;;;;;4934427;29;20031;-90
2021/04/07 04:15:28;;;;;;;3.00;1.00;;;2.60;80.30;;;;;;4932383;29;20395;-89
2021/04/07 04:17:54;;;;;;;1.38;0.88;;;2.60;80.50;;;;;;4931824;29;20027;-90
2021/04/07 04:20:20;;;;;;;2.30;1.10;;;2.60;80.60;;;;;;4932473;29;20035;-88
2021/04/07 04:22:46;;;;;;;2.42;1.00;;;2.50;80.70;;;;;;4934328;29;20065;-87
2021/04/07 04:25:16;;;;;;;1.23;0.77;;;2.60;80.60;;;;;;4932997;29;20131;-88
2021/04/07 04:27:41;;;;;;;1.27;0.90;;;2.60;80.90;;;;;;4932111;29;20115;-89
2021/04/07 04:30:09;;;;;;;1.13;1.00;;;2.60;80.70;;;;;;4932647;29;20087;-89
2021/04/07 04:32:35;;;;;;;1.35;1.00;;;2.60;80.60;;;;;;4931385;29;20028;-89
2021/04/07 04:35:01;;;;;;;1.73;1.10;;;2.60;80.70;;;;;;4931754;29;20043;-89
2021/04/07 04:37:27;;;;;;;1.67;1.00;;;2.60;80.80;;;;;;4935597;29;20038;-91
2021/04/07 04:39:52;;;;;;;1.33;0.90;;;2.60;80.90;;;;;;4933806;29;20038;-89
2021/04/07 04:42:19;;;;;;;1.48;0.95;;;2.60;81.80;;;;;;4934525;29;20210;-91
2021/04/07 04:44:44;;;;;;;1.17;0.82;;;2.60;81.00;;;;;;4933661;28;20487;-88
2021/04/07 04:47:10;;;;;;;1.30;1.00;;;2.60;81.00;;;;;;4932352;29;20032;-87
2021/04/07 04:49:35;;;;;;;1.75;0.90;;;2.60;81.00;;;;;;4932766;28;20038;-86
2021/04/07 04:52:01;;;;;;;2.67;1.10;;;2.60;81.00;;;;;;4932199;29;20034;-88
2021/04/07 04:54:26;;;;;;;1.70;0.90;;;2.60;80.90;;;;;;4931704;29;20126;-88
2021/04/07 04:56:52;;;;;;;0.90;0.90;;;2.60;80.90;;;;;;4930977;29;20067;-89
2021/04/07 04:59:17;;;;;;;2.33;1.30;;;2.60;80.90;;;;;;4931896;29;20039;-89
2021/04/07 05:01:43;;;;;;;1.42;1.00;;;2.60;80.90;;;;;;4930153;29;20028;-87
2021/04/07 05:04:09;;;;;;;2.67;0.90;;;2.60;81.50;;;;;;4934358;29;20487;-95
2021/04/07 05:06:35;;;;;;;2.03;1.13;;;2.60;80.90;;;;;;4934758;29;20126;-92
2021/04/07 05:09:03;;;;;;;1.20;0.95;;;2.60;81.10;;;;;;4937426;29;20028;-92
2021/04/07 05:11:28;;;;;;;2.05;1.20;;;2.60;81.20;;;;;;4934322;29;20038;-90
2021/04/07 05:13:54;;;;;;;1.30;0.90;;;2.60;81.40;;;;;;4936107;29;20019;-90
2021/04/07 05:16:20;;;;;;;1.30;1.20;;;2.60;81.40;;;;;;4936902;29;20036;-90
2021/04/07 05:18:45;;;;;;;2.22;1.10;;;2.60;81.30;;;;;;4936768;29;20024;-90
2021/04/07 05:21:11;;;;;;;3.33;1.10;;;2.60;81.40;;;;;;4935252;29;20028;-89
2021/04/07 05:23:36;;;;;;;1.27;1.17;;;2.50;81.50;;;;;;4936919;29;20036;-90
2021/04/07 05:26:02;;;;;;;2.55;1.20;;;2.60;81.50;;;;;;4936806;29;20040;-88
2021/04/07 05:28:28;;;;;;;2.00;1.27;;;2.60;81.60;;;;;;4936358;29;20042;-91
2021/04/07 05:31:00;;;;;;;1.83;1.33;;;2.60;81.70;;;;;;4937302;29;20027;-90
2021/04/07 05:33:30;;;;;;;1.23;1.00;;;2.50;82.20;;;;;;4937050;29;20023;-91
2021/04/07 05:35:58;;;;;;;2.08;1.20;;;2.50;82.30;;;;;;4937907;29;20056;-91
2021/04/07 05:38:24;;;;;;;1.45;1.10;;;2.50;82.20;;;;;;4937174;28;20091;-90
2021/04/07 05:40:55;;;;;;;2.15;1.10;;;2.60;82.20;;;;;;4936542;29;20023;-92
2021/04/07 05:43:22;;;;;;;0.90;0.80;;;2.60;82.20;;;;;;4942825;29;20047;-92
2021/04/07 05:45:48;;;;;;;1.17;1.02;;;2.60;82.20;;;;;;4938166;29;20032;-92
2021/04/07 05:48:13;;;;;;;1.48;1.10;;;2.70;82.10;;;;;;4939808;29;20027;-90
2021/04/07 05:50:41;;;;;;;1.23;1.00;;;2.70;81.90;;;;;;4933653;29;20478;-90
2021/04/07 05:53:11;;;;;;;1.83;1.17;;;2.70;82.00;;;;;;4935876;29;20509;-89
2021/04/07 05:55:38;;;;;;;0.90;0.90;;;2.70;82.00;;;;;;4934290;29;20068;-92
2021/04/07 05:58:06;;;;;;;0.80;0.80;;;2.80;82.00;;;;;;4931228;29;20035;-95
2021/04/07 06:00:32;;;;;;;0.80;0.80;;;2.80;81.80;;;;;;4936369;29;20556;-91
2021/04/07 06:03:00;;;;;;;0.60;0.60;;;2.80;81.80;;;;;;4933107;29;20028;-91
2021/04/07 06:05:28;;;;;;;0.95;0.77;;;2.80;81.70;;;;;;4935042;29;20038;-92
2021/04/07 06:07:55;;;;;;;0.85;0.85;;;2.70;81.80;;;;;;4934968;29;20194;-92
2021/04/07 06:10:23;;;;;;;0.95;0.80;;;2.70;81.90;;;;;;4938749;28;20028;-92
2021/04/07 06:12:48;;;;;;;0.80;0.80;;;2.70;81.90;;;;;;4937785;29;20038;-93
2021/04/07 06:15:15;;;;;;;0.70;0.70;;;2.80;81.90;;;;;;4935718;29;20028;-94
2021/04/07 06:17:52;;;;;;;1.00;0.88;;;2.80;81.80;;;;;;4947349;29;20079;-91
2021/04/07 06:20:17;;;;;;;1.27;1.10;;;2.90;81.70;;;;;;4963708;28;20016;-94
2021/04/07 06:22:43;;;;;;;0.98;0.93;;;2.90;81.60;;;;;;4951044;29;20027;-93
2021/04/07 06:25:09;;;;;;;1.98;1.00;;;2.90;81.60;;;;;;4947090;29;20102;-92
2021/04/07 06:27:35;;;;;;;1.35;0.82;;;2.90;81.50;;;;;;4943530;29;20372;-91
2021/04/07 06:30:10;;;;;;;1.77;1.10;;;3.00;81.50;;;;;;4940785;29;20036;-94
2021/04/07 06:32:36;;;;;;;0.98;0.90;;;3.10;81.30;;;;;;4935813;29;20106;-93
2021/04/07 06:35:01;;;;;;;0.82;0.82;;;3.20;81.30;;;;;;4942432;29;20115;-93
2021/04/07 06:37:27;;;;;;;3.80;1.58;;;3.20;81.10;;;;;;4937343;29;20020;-93
2021/04/07 06:39:58;;;;;;;1.75;1.10;;;3.20;81.10;;;;;;4940338;29;20364;-90
2021/04/07 06:42:27;;;;;;;1.67;1.10;;;3.30;81.10;;;;;;4955642;28;20039;-94
2021/04/07 06:44:52;;;;;;;1.45;1.25;;;3.30;81.10;;;;;;4943330;29;20023;-93
2021/04/07 06:47:18;;;;;;;1.50;1.10;;;3.30;81.00;;;;;;4937982;29;20054;-93
2021/04/07 06:49:48;;;;;;;1.70;1.10;;;3.30;81.00;;;;;;4935347;29;20042;-93
2021/04/07 06:52:18;;;;;;;2.65;1.55;;;3.40;81.10;;;;;;4945101;29;20023;-95
2021/04/07 06:54:58;;;;;;;2.60;1.38;;;3.40;81.20;;;;;;4945069;28;20071;-95
2021/04/07 06:57:25;;;;;;;1.95;1.20;;;3.40;81.20;;;;;;4950038;28;20024;-96
2021/04/07 06:59:56;;;;;;;1.83;1.27;;;3.60;81.10;;;;;;4940320;29;20032;-93
2021/04/07 07:02:25;;;;;;;2.22;1.45;;;3.80;81.00;;;;;;4943517;29;20085;-95
2021/04/07 07:04:50;;;;;;;2.47;1.45;;;3.90;80.80;;;;;;4938457;29;20112;-95
2021/04/07 07:10:03;;;;;;;2.45;1.20;;;4.00;80.50;;;;;;4983853;26;20042;-93
2021/04/07 07:12:31;;;;;;;2.40;1.50;;;4.50;80.80;;;;;;4957085;28;20027;-95
2021/04/07 07:15:01;;;;;;;2.08;1.27;;;5.30;79.20;;;;;;4960774;28;20043;-96
2021/04/07 07:17:34;;;;;;;2.17;1.20;;;5.50;77.90;;;;;;4958152;28;20016;-95
2021/04/07 07:19:59;;;;;;;;;;;5.50;77.20;;;;;;4964108;28;20045;-96
2021/04/07 07:22:27;;;;;;;2.33;1.40;;;5.40;77.20;;;;;;4956996;28;20001;-93
2021/04/07 07:24:59;;;;;;;2.80;1.20;;;5.20;77.60;;;;;;4956586;28;20048;-94
2021/04/07 07:27:35;;;;;;;4.35;2.00;;;5.10;78.10;;;;;;4956010;28;20060;-94
2021/04/07 07:30:02;;;;;;;3.22;1.40;;;5.10;78.60;;;;;;4954140;28;20067;-95
2021/04/07 07:32:36;;;;;;;3.25;1.60;;;5.00;78.90;;;;;;4957516;28;20039;-96
2021/04/07 07:35:13;;;;;;;2.47;1.50;;;5.20;79.70;;;;;;4953822;28;20034;-93
2021/04/07 07:37:41;;;;;;;5.47;2.40;;;6.00;78.20;;;;;;4974615;28;20031;-94
2021/04/07 07:40:18;;;;;;;7.55;3.13;;;6.00;77.10;;;;;;4960871;28;20023;-94
2021/04/07 07:42:45;;;;;;;4.20;1.80;;;5.80;77.30;;;;;;4977325;28;20047;-95
2021/04/07 07:45:13;;;;;;;3.40;2.00;;;5.60;77.70;;;;;;4959897;28;20050;-95
2021/04/07 07:47:44;;;;;;;4.57;1.85;;;5.50;78.20;;;;;;4960328;28;20027;-94
2021/04/07 07:50:12;;;;;;;2.80;1.20;;;5.60;78.90;;;;;;4955578;28;20565;-90
2021/04/07 07:52:41;;;;;;;3.50;1.30;;;5.70;79.30;;;;;;4959603;28;20038;-93
2021/04/07 07:55:16;;;;;;;6.88;1.67;;;5.70;78.60;;;;;;4959667;28;20039;-93
2021/04/07 07:57:55;;;;;;;5.68;1.50;;;5.60;79.20;;;;;;4962242;28;20028;-94
2021/04/07 08:00:23;;;;;;;7.70;1.75;;;5.50;79.70;;;;;;4965418;28;20034;-94
2021/04/07 08:02:50;;;;;;;3.90;1.63;;;5.50;80.60;;;;;;4977698;28;20031;-96
2021/04/07 08:05:19;;;;;;;5.07;1.20;;;5.50;80.30;;;;;;4972208;28;20820;-95
2021/04/07 08:07:46;;;;;;;5.63;1.30;;;5.50;80.80;;;;;;4970841;28;20030;-93
2021/04/07 08:10:17;;;;;;;6.68;1.52;;;5.50;81.10;;;;;;4968158;28;20027;-95
2021/04/07 08:12:56;;;;;;;5.63;1.40;;;5.50;81.30;;;;;;4969437;28;20035;-96
2021/04/07 08:15:23;;;;;;;6.15;1.50;;;5.50;81.70;;;;;;4969290;28;20125;-95
2021/04/07 08:17:50;;;;;;;5.75;1.48;;;5.50;82.00;;;;;;4963597;28;20033;-96
2021/04/07 08:20:18;;;;;;;7.85;2.00;;;5.60;82.00;;;;;;4968206;28;20052;-94
2021/04/07 08:22:45;;;;;;;7.15;1.92;;;5.50;82.40;;;;;;4968873;28;20038;-96
2021/04/07 08:25:14;;;;;;;11.88;2.70;;;5.60;82.30;;;;;;4960931;28;20019;-94
2021/04/07 08:30:15;;;;;;;6.53;1.80;;;5.50;82.70;;;;;;5531831;23;20082;-94
2021/04/07 08:32:47;;;;;;;2.72;0.93;;;5.50;82.90;;;;;;5608252;23;21610;-93
2021/04/07 08:35:15;;;;;;;4.93;1.55;;;5.40;82.90;;;;;;4945662;29;20047;-96
2021/04/07 08:37:41;;;;;;;8.90;1.70;;;5.50;82.80;;;;;;4944211;28;20087;-96
2021/04/07 08:40:14;;;;;;;4.40;1.30;;;5.50;82.70;;;;;;4949635;28;20085;-95
2021/04/07 08:42:46;;;;;;;7.18;1.48;;;5.60;82.60;;;;;;4947682;29;20023;-95
2021/04/07 08:45:13;;;;;;;10.50;1.70;;;5.70;82.40;;;;;;4953329;28;20063;-95
2021/04/07 08:47:51;;;;;;;7.28;2.00;;;5.80;82.20;;;;;;4944291;29;20051;-95
2021/04/07 08:50:17;;;;;;;7.10;1.90;;;6.10;81.90;;;;;;4958910;29;20050;-96
2021/04/07 08:52:48;;;;;;;10.70;2.20;;;6.40;81.30;;;;;;4955233;28;20039;-95
2021/04/07 08:55:50;;;;;;;12.52;2.50;;;6.60;80.70;;;;;;4947573;29;20111;-95
2021/04/07 08:58:23;;;;;;;10.85;2.45;;;6.80;80.40;;;;;;4948488;28;20413;-95
2021/04/07 09:00:54;;;;;;;12.05;2.30;;;6.90;80.10;;;;;;4954288;28;20032;-96
2021/04/07 09:03:25;;;;;;;14.32;2.90;;;7.00;79.90;;;;;;4955616;29;20024;-96
2021/04/07 09:05:52;;;;;;;12.43;2.90;;;7.00;79.60;;;;;;5220025;23;20043;-95
2021/04/07 09:08:27;;;;;;;12.13;2.78;;;7.10;79.40;;;;;;4978032;28;20050;-95
2021/04/07 09:10:55;;;;;;;15.68;3.38;;;7.20;79.40;;;;;;4981612;28;20042;-96
2021/04/07 09:13:35;;;;;;;12.45;2.65;;;7.10;79.10;;;;;;4983460;28;20018;-95
2021/04/07 09:16:06;;;;;;;13.75;2.67;;;7.00;78.90;;;;;;4977123;28;20082;-96
2021/04/07 09:24:01;;;;;;;15.88;2.60;;;7.20;78.80;;;;;;5160429;23;20067;-96
2021/04/07 09:26:29;;;;;;;13.18;2.58;;;7.30;78.90;;;;;;4956446;29;20461;-96
2021/04/07 09:28:56;;;;;;;16.20;3.30;;;7.40;78.60;;;;;;5010520;23;20046;-94
2021/04/07 09:31:32;;;;;;;17.30;3.72;;;7.50;78.40;;;;;;5001646;28;20031;-96
2021/04/07 09:33:58;;;;;;;16.58;2.78;;;7.60;77.90;;;;;;5091832;23;20968;-93
2021/04/07 09:36:31;;;;;;;14.80;2.83;;;7.70;77.40;;;;;;4979162;28;20042;-94
2021/04/07 09:39:02;;;;;;;11.15;2.40;;;7.80;77.10;;;;;;4983793;28;20610;-94
2021/04/07 09:41:35;;;;;;;13.95;3.33;;;8.00;76.90;;;;;;4987511;28;20042;-96
2021/04/07 09:44:04;;;;;;;11.98;2.50;;;8.20;76.30;;;;;;5312798;23;21175;-96
2021/04/07 09:46:30;;;;;;;13.10;2.95;;;8.20;75.90;;;;;;5019768;23;20498;-96
2021/04/07 09:48:58;;;;;;;11.43;2.38;;;8.10;75.70;;;;;;4978087;28;20023;-95
2021/04/07 09:51:35;;;;;;;10.90;2.30;;;8.00;76.10;;;;;;4973516;28;20027;-95
2021/04/07 09:54:25;;;;;;;10.35;2.22;;;7.90;76.50;;;;;;4970249;28;20027;-96
2021/04/07 09:57:13;;;;;;;12.70;3.03;;;7.80;76.80;;;;;;4956306;29;20039;-95
2021/04/07 09:59:48;;;;;;;14.80;3.47;;;7.60;76.70;;;;;;4967338;28;20035;-94
2021/04/07 10:02:35;;;;;;;15.35;4.18;;;7.40;76.70;;;;;;4964750;28;20061;-96
2021/04/07 10:05:00;;;;;;;15.60;4.88;;;7.10;76.90;;;;;;4954024;29;20051;-94
2021/04/07 10:07:28;;;;;;;12.18;3.40;;;7.00;77.20;;;;;;4958741;28;20062;-95
2021/04/07 10:09:55;;;;;;;23.00;10.18;;;6.80;77.50;;;;;;4988508;23;20090;-92
2021/04/07 10:12:33;;;;;;;10.02;3.53;;;6.80;77.90;;;;;;4945506;28;20086;-93
2021/04/07 10:15:13;;;;;;;10.05;2.75;;;6.80;78.00;;;;;;4916587;29;20043;-93
2021/04/07 10:17:40;;;;;;;11.68;3.20;;;6.90;78.10;;;;;;4912957;29;20031;-89
2021/04/07 10:20:14;;;;;;;14.30;3.78;;;7.00;78.10;;;;;;4925725;29;20184;-91
2021/04/07 10:22:49;;;;;;;13.38;3.55;;;7.20;78.10;;;;;;4918318;29;20161;-92
2021/04/07 10:25:22;;;;;;;11.80;3.25;;;7.30;78.10;;;;;;4917823;29;20035;-94
2021/04/07 10:27:48;;;;;;;16.38;3.47;;;7.50;77.90;;;;;;4925257;29;20035;-93
2021/04/07 10:30:26;;;;;;;12.27;2.83;;;7.70;77.60;;;;;;4899447;29;20028;-93
2021/04/07 10:32:54;;;;;;;12.18;3.25;;;7.70;77.00;;;;;;4903139;29;20464;-94
2021/04/07 10:35:35;;;;;;;11.85;3.05;;;7.80;76.80;;;;;;4921832;29;20043;-92
2021/04/07 10:38:05;;;;;;;11.57;2.45;;;7.80;76.40;;;;;;4918386;29;20471;-92
2021/04/07 10:40:32;;;;;;;10.38;2.45;;;7.90;75.70;;;;;;4916634;29;20084;-92
2021/04/07 10:43:08;;;;;;;9.00;2.22;;;8.00;75.00;;;;;;4918817;29;20114;-93
2021/04/07 10:45:34;;;;;;;11.57;2.47;;;8.10;73.20;;;;;;4919410;29;20024;-96
2021/04/07 10:48:04;;;;;;;11.90;2.67;;;8.20;72.40;;;;;;4918084;29;20176;-93
2021/04/07 10:50:35;;;;;;;9.65;2.55;;;8.40;71.70;;;;;;4915619;29;20027;-95
2021/04/07 10:53:01;;;;;;;12.45;2.60;;;8.60;70.90;;;;;;4922150;29;20032;-96
2021/04/07 10:55:29;;;;;;;8.63;2.20;;;8.60;69.60;;;;;;4917187;29;20047;-96
2021/04/07 10:58:06;;;;;;;9.15;2.40;;;8.50;69.50;;;;;;4901224;29;20028;-94
2021/04/07 11:00:45;;;;;;;8.95;2.47;;;8.40;70.40;;;;;;4920425;29;20042;-94
2021/04/07 11:03:10;;;;;;;7.22;2.30;;;8.00;70.90;;;;;;4919882;29;20028;-95
2021/04/07 11:05:44;;;;;;;11.50;2.88;;;7.70;71.80;;;;;;4919313;29;20062;-94
2021/04/07 11:08:12;;;;;;;16.25;3.08;;;7.40;72.40;;;;;;4937473;29;20040;-95
2021/04/07 11:10:44;;;;;;;10.93;2.60;;;7.20;73.00;;;;;;4929639;29;20028;-92
2021/04/07 11:13:12;;;;;;;16.15;3.60;;;7.20;73.90;;;;;;4925780;29;20127;-92
2021/04/07 11:15:38;;;;;;;10.88;2.67;;;7.20;74.30;;;;;;4927652;29;20071;-94
2021/04/07 11:18:04;;;;;;;15.30;2.85;;;7.40;74.50;;;;;;4929274;29;20032;-95
2021/04/07 11:20:30;;;;;;;10.10;2.85;;;7.60;74.40;;;;;;4934538;29;20027;-94
2021/04/07 11:22:56;;;;;;;13.35;2.83;;;7.70;74.20;;;;;;4919849;29;20032;-94
2021/04/07 11:25:22;;;;;;;11.05;3.08;;;7.90;73.90;;;;;;4920729;29;20065;-96
2021/04/07 11:27:50;;;;;;;12.80;3.17;;;8.20;73.50;;;;;;4919872;29;20028;-93
2021/04/07 11:30:16;;;;;;;14.00;2.75;;;8.30;72.90;;;;;;4919343;29;20032;-93
2021/04/07 11:32:56;;;;;;;15.85;3.22;;;8.20;71.90;;;;;;4919970;29;20035;-96
2021/04/07 11:35:28;;;;;;;7.80;2.50;;;8.00;72.50;;;;;;4923196;29;20110;-94
2021/04/07 11:37:57;;;;;;;8.40;1.92;;;7.90;71.00;;;;;;4923008;29;20526;-93
2021/04/07 11:43:10;;;;;;;7.47;2.58;;;7.60;70.20;;;;;;4922795;29;20035;-93
2021/04/07 11:45:36;;;;;;;9.27;2.00;;;7.60;70.10;;;;;;4916094;29;20020;-91
2021/04/07 11:48:01;;;;;;;6.45;1.73;;;7.70;69.80;;;;;;4917755;29;20875;-91
2021/04/07 11:50:27;;;;;;;7.35;1.90;;;7.80;69.80;;;;;;4925252;29;20118;-94
2021/04/07 11:52:54;;;;;;;8.65;2.50;;;7.90;69.50;;;;;;4927549;29;20036;-96
2021/04/07 11:55:20;;;;;;;9.73;2.65;;;8.10;69.30;;;;;;4916946;29;20036;-93
2021/04/07 11:57:45;;;;;;;12.93;3.20;;;8.20;68.70;;;;;;4925946;29;20038;-94
2021/04/07 12:00:24;;;;;;;12.50;3.08;;;8.20;67.90;;;;;;4928088;29;20036;-96
2021/04/07 12:02:50;;;;;;;9.70;2.83;;;8.20;67.90;;;;;;4925697;29;20031;-96
2021/04/07 12:05:21;;;;;;;14.43;3.13;;;8.30;68.00;;;;;;4926710;29;20038;-93
2021/04/07 12:07:46;;;;;;;9.07;2.70;;;8.40;68.10;;;;;;4927718;29;20038;-93
2021/04/07 12:10:12;;;;;;;9.48;2.78;;;8.30;68.20;;;;;;4923423;29;20035;-95
2021/04/07 12:12:38;;;;;;;9.88;2.25;;;8.10;67.60;;;;;;4930644;29;20016;-95
2021/04/07 12:15:06;;;;;;;8.73;2.10;;;7.90;67.60;;;;;;4921472;29;20039;-95
2021/04/07 12:17:31;;;;;;;6.88;2.17;;;7.80;66.60;;;;;;4926260;29;20491;-95
2021/04/07 12:19:59;;;;;;;7.22;1.63;;;7.70;66.30;;;;;;4924601;29;20026;-96
2021/04/07 12:22:24;;;;;;;5.88;1.80;;;7.70;66.50;;;;;;4926559;29;20032;-94
2021/04/07 12:24:51;;;;;;;9.52;2.20;;;7.70;66.60;;;;;;4928785;29;20036;-95
2021/04/07 12:27:18;;;;;;;9.70;2.10;;;7.70;66.30;;;;;;4927468;29;20125;-92
2021/04/07 12:29:45;;;;;;;8.70;2.05;;;7.70;66.30;;;;;;4927026;29;20279;-94
2021/04/07 12:32:12;;;;;;;20.60;10.23;;;7.60;65.80;;;;;;4933789;29;20834;-93
2021/04/07 12:34:38;;;;;;;8.93;3.83;;;7.60;66.10;;;;;;4931428;29;20028;-96
2021/04/07 12:37:04;;;;;;;8.15;3.47;;;7.70;66.40;;;;;;4932456;29;20055;-94
2021/04/07 12:39:29;;;;;;;7.38;2.38;;;7.60;65.70;;;;;;4927500;29;20053;-94
2021/04/07 12:42:00;;;;;;;7.18;2.35;;;7.50;65.40;;;;;;4925906;29;20075;-95
2021/04/07 12:44:26;;;;;;;7.53;3.30;;;7.50;65.50;;;;;;4922218;29;20040;-93
2021/04/07 12:46:52;;;;;;;7.63;2.28;;;7.50;65.30;;;;;;4926764;29;20391;-93
2021/04/07 12:49:17;;;;;;;8.70;1.70;;;7.50;65.50;;;;;;4928657;29;20039;-95
2021/04/07 12:51:52;;;;;;;7.70;1.77;;;7.60;65.40;;;;;;4928557;29;20027;-95
2021/04/07 12:54:25;;;;;;;8.40;2.22;;;7.60;65.10;;;;;;4925109;29;20035;-95
2021/04/07 12:56:52;;;;;;;5.40;1.40;;;7.60;65.00;;;;;;4920730;29;20092;-95
2021/04/07 12:59:17;;;;;;;5.68;1.77;;;7.80;65.00;;;;;;4927396;29;20035;-96
2021/04/07 13:01:50;;;;;;;8.68;2.15;;;8.00;64.10;;;;;;4924064;29;20036;-95
2021/04/07 13:04:15;;;;;;;6.68;1.95;;;8.00;63.50;;;;;;4928236;29;20107;-94
2021/04/07 13:06:41;;;;;;;9.15;2.25;;;8.00;62.60;;;;;;4923791;29;20130;-95
2021/04/07 13:09:07;;;;;;;10.38;1.95;;;7.90;61.90;;;;;;4920537;29;20092;-94
2021/04/07 13:11:32;;;;;;;6.00;1.85;;;7.90;62.20;;;;;;4927566;29;20043;-92
2021/04/07 13:13:58;;;;;;;6.72;1.80;;;8.00;62.40;;;;;;4933032;29;20026;-94